Main page
METAR-TAF:

METAR-TAF

Airports :

Cazaux Air Base

Cazaux, France

latitude: 44-32N, longitude: 001-08W, elevation: 25 m

Current weather observation

The report was made 20 minutes ago, at 15:30 UTC
Wind 10 kt from the Northwest
Temperature 15°C
Humidity 44%
Pressure 1018 hPa
Visibility 10 km or more
no clouds below 1500 m and no cumulonimbus

METAR: LFBC 281530Z AUTO 31010KT CAVOK 15/03 Q1018

Time: 16:50 (15:50 UTC)

Forecast

The report was made 25 hours and 50 minutes ago, at 14:00 UTC
Forecast valid from 27 at 15 UTC to 28 at 15 UTC
Wind 10 kt from the Northwest
Visibility 10 km or more
no clouds below 1500 m and no cumulonimbus
Becoming
from 27 at 17 UTC to 27 at 19 UTC
Wind 3 kt from variable directions
Becoming
from 28 at 13 UTC to 28 at 15 UTC
Wind 10 kt from the Northwest

TAF: LFBC 271400Z 2715/2815 32010KT CAVOK BECMG 2717/2719 VRB03KT BECMG 2813/2815 32010KT

Weather observations and forecasts of more than 4000 airports (METAR and TAF reports).

The available stations are represented by yellow and red dots on the map.

Hover mouse over dot to see the name of the station.

Then click to see weather observations and forecasts.

To change the map : click on the green buttons with a black cross to zoom in, on the green button with a dash to zoom out, or on the green arrows for adjacent maps.


METAR-TAF: